Espinoza, Colorado
Current Conditions -  °F | °C
As of 2:52 AM on Sunday 21 Dec 2014 (Local Time) from KALS Reporting Station
Broken Clouds Broken Clouds  
Wind Chill: 10°   Ceiling: 6000
Heat Index: 10°   Visibility: 10mi
Dew Point:   Wind: 0mph
Humidity: 84%   Direction: NA
Pressure: 30.02"   Gusts: NA
Location:  37.1816°N, 106.262°W
Report Text: KALS 210952Z AUTO 00000KT 10SM BKN060 M12/M14 A3002 RMK AO2 SLP193 T11221144
Loading
Personal Weather Stations






























Interactive Weather Map New forecast layout! Learn more

10-Day Weather Forecast

Advertisements
Track Severe Weather on mobile